Time;durP1;ratioP1;P1;durP2;ratioP2;P2;SDS_P1;SDS_P2;PMS_P1;PMS_P2;Temp;Humidity;BMP_temperature;BMP_pressure;BME280_temperature;BME280_humidity;BME280_pressure;Samples;Min_cycle;Max_cycle;Signal;HPM_P1;HPM_P2
2023/04/10 00:00:08;;;;;;;99.70;79.82;;;8.30;99.90;;;;;;4994246;28;20084;-87
2023/04/10 00:02:36;;;;;;;97.05;78.53;;;8.20;99.90;;;;;;4989866;28;20069;-86
2023/04/10 00:05:02;;;;;;;121.82;97.65;;;8.40;99.90;;;;;;4975849;28;20054;-87
2023/04/10 00:07:27;;;;;;;115.13;92.63;;;8.20;99.90;;;;;;4962718;28;20401;-87
2023/04/10 00:09:53;;;;;;;110.63;86.53;;;9.10;99.90;;;;;;4987488;28;20038;-86
2023/04/10 00:12:19;;;;;;;125.95;97.55;;;9.30;99.90;;;;;;4962304;28;20033;-86
2023/04/10 00:14:45;;;;;;;138.57;110.80;;;8.10;99.90;;;;;;4983590;28;20049;-87
2023/04/10 00:17:10;;;;;;;154.95;119.35;;;8.00;99.90;;;;;;4988162;28;20054;-86
2023/04/10 00:19:36;;;;;;;152.18;114.00;;;8.30;99.90;;;;;;4994532;28;20041;-87
2023/04/10 00:22:02;;;;;;;125.90;111.88;;;8.20;99.90;;;;;;4976164;28;20861;-87
2023/04/10 00:24:27;;;;;;;174.18;138.60;;;8.20;99.90;;;;;;4989722;28;20132;-86
2023/04/10 00:26:53;;;;;;;109.85;92.20;;;8.30;99.90;;;;;;4974611;28;20077;-86
2023/04/10 00:29:18;;;;;;;126.40;94.53;;;8.00;99.90;;;;;;4992759;28;20500;-86
2023/04/10 00:31:44;;;;;;;143.80;114.68;;;7.80;99.90;;;;;;4972391;28;20041;-87
2023/04/10 00:34:10;;;;;;;140.43;110.80;;;7.80;99.90;;;;;;4983337;28;20034;-86
2023/04/10 00:36:36;;;;;;;123.07;98.43;;;8.20;99.90;;;;;;4973362;28;20116;-86
2023/04/10 00:39:02;;;;;;;168.35;120.30;;;7.80;99.90;;;;;;4983193;28;20066;-86
2023/04/10 00:41:28;;;;;;;114.38;91.07;;;7.90;99.90;;;;;;4974261;28;20549;-86
2023/04/10 00:43:57;;;;;;;153.02;124.85;;;7.90;99.90;;;;;;4988744;28;20049;-86
2023/04/10 00:46:26;;;;;;;127.35;103.22;;;8.70;99.90;;;;;;4990411;28;20083;-86
2023/04/10 00:48:53;;;;;;;104.80;84.15;;;8.10;99.90;;;;;;4988427;28;20138;-87
2023/04/10 00:51:21;;;;;;;112.82;79.95;;;8.90;99.90;;;;;;4976185;28;20506;-86
2023/04/10 00:53:51;;;;;;;111.93;86.60;;;7.80;99.90;;;;;;4976498;28;20045;-86
2023/04/10 00:56:17;;;;;;;116.97;100.75;;;7.50;99.90;;;;;;4988790;28;20049;-86
2023/04/10 00:58:43;;;;;;;166.77;124.70;;;7.70;99.90;;;;;;4970382;28;20046;-87
2023/04/10 01:01:09;;;;;;;123.20;92.85;;;9.10;99.90;;;;;;4977058;28;20037;-86
2023/04/10 01:03:35;;;;;;;154.00;112.10;;;7.80;99.90;;;;;;4990805;28;20042;-86
2023/04/10 01:06:38;;;;;;;135.45;98.78;;;7.60;99.90;;;;;;4976775;28;20366;-87
2023/04/10 01:09:14;;;;;;;109.72;94.90;;;8.10;99.90;;;;;;4977098;28;20038;-86
2023/04/10 01:11:54;;;;;;;189.80;112.05;;;7.70;99.90;;;;;;4973356;28;20406;-87
2023/04/10 01:14:36;;;;;;;114.78;89.95;;;7.70;99.90;;;;;;4990248;28;20038;-86
2023/04/10 01:17:06;;;;;;;118.95;85.63;;;8.20;99.90;;;;;;4982413;28;20068;-87
2023/04/10 01:20:06;;;;;;;106.40;77.53;;;8.00;99.90;;;;;;4991160;28;20077;-86
2023/04/10 01:22:49;;;;;;;112.43;76.25;;;8.20;99.90;;;;;;4970963;28;20045;-87
2023/04/10 01:25:42;;;;;;;108.70;72.65;;;8.20;99.90;;;;;;4961257;28;20100;-86
2023/04/10 01:28:38;;;;;;;110.82;90.03;;;8.10;99.90;;;;;;4979757;28;20521;-86
2023/04/10 01:31:07;;;;;;;153.30;116.73;;;7.70;99.90;;;;;;4971177;28;20034;-86
2023/04/10 01:33:41;;;;;;;118.22;102.30;;;8.10;99.90;;;;;;4982247;28;20517;-86
2023/04/10 01:36:09;;;;;;;121.53;96.93;;;8.10;99.90;;;;;;4965328;28;20417;-87
2023/04/10 01:38:38;;;;;;;185.13;139.93;;;8.10;99.90;;;;;;4981786;28;20046;-87
2023/04/10 01:41:05;;;;;;;96.07;68.50;;;7.50;99.90;;;;;;4992054;28;20493;-87
2023/04/10 01:43:33;;;;;;;100.88;83.75;;;7.90;99.90;;;;;;4971195;28;20119;-87
2023/04/10 01:45:59;;;;;;;124.00;101.53;;;8.00;99.90;;;;;;4972797;28;20108;-87
2023/04/10 01:48:26;;;;;;;121.53;88.10;;;7.60;99.90;;;;;;4895966;28;20111;-86
2023/04/10 01:50:53;;;;;;;129.85;97.07;;;7.80;99.90;;;;;;4983433;28;20088;-87
2023/04/10 01:53:19;;;;;;;111.43;84.43;;;7.60;99.90;;;;;;4976319;28;20410;-87
2023/04/10 01:55:45;;;;;;;124.32;96.65;;;7.50;99.90;;;;;;5006794;28;20064;-87
2023/04/10 01:58:12;;;;;;;124.15;110.80;;;7.90;99.90;;;;;;4980483;28;20466;-87
2023/04/10 02:00:40;;;;;;;116.15;80.18;;;7.50;99.90;;;;;;4989619;28;20113;-87
2023/04/10 02:03:06;;;;;;;139.68;109.15;;;8.00;99.90;;;;;;4991737;28;20042;-87
2023/04/10 02:05:50;;;;;;;136.13;102.20;;;7.50;99.90;;;;;;4975191;28;20042;-87
2023/04/10 02:08:22;;;;;;;114.05;79.03;;;8.00;99.90;;;;;;4981070;28;20046;-87
2023/04/10 02:10:56;;;;;;;145.02;96.55;;;7.40;99.90;;;;;;4984134;28;20042;-86
2023/04/10 02:13:25;;;;;;;96.47;72.25;;;7.50;99.90;;;;;;4991577;28;20290;-86
2023/04/10 02:15:54;;;;;;;73.68;55.03;;;8.00;99.90;;;;;;4991280;28;20117;-86
2023/04/10 02:18:21;;;;;;;97.03;70.38;;;7.80;99.90;;;;;;4990801;28;20042;-87
2023/04/10 02:20:47;;;;;;;112.35;89.38;;;7.60;99.90;;;;;;5005987;28;20042;-86
2023/04/10 02:23:15;;;;;;;106.22;88.00;;;7.50;99.90;;;;;;5008292;28;20038;-87
2023/04/10 02:25:41;;;;;;;90.15;61.67;;;8.10;99.90;;;;;;4978451;28;20054;-86
2023/04/10 02:28:07;;;;;;;120.13;82.53;;;7.90;99.90;;;;;;5011094;28;20579;-86
2023/04/10 02:30:33;;;;;;;94.00;67.95;;;7.70;99.90;;;;;;5010700;28;20145;-86
2023/04/10 02:32:59;;;;;;;98.53;70.68;;;7.80;99.90;;;;;;4994810;28;20045;-87
2023/04/10 02:35:27;;;;;;;82.03;59.58;;;7.70;99.90;;;;;;5009617;28;20042;-86
2023/04/10 02:37:53;;;;;;;92.68;68.18;;;7.70;99.90;;;;;;4966169;28;1117167;-86
2023/04/10 02:40:18;;;;;;;102.93;78.40;;;7.60;99.90;;;;;;4992996;28;20133;-86
2023/04/10 02:42:44;;;;;;;94.05;69.60;;;7.70;99.90;;;;;;5009021;28;20040;-86
2023/04/10 02:45:10;;;;;;;92.47;79.43;;;7.90;99.90;;;;;;5011258;28;20052;-86
2023/04/10 02:47:35;;;;;;;80.88;60.03;;;7.90;99.90;;;;;;5010613;28;20101;-86
2023/04/10 02:50:01;;;;;;;108.93;89.55;;;9.50;99.90;;;;;;5011889;28;20042;-86
2023/04/10 02:52:27;;;;;;;78.82;58.35;;;7.60;99.90;;;;;;4994258;28;20545;-86
2023/04/10 02:54:52;;;;;;;129.32;92.32;;;7.30;99.90;;;;;;5002830;28;20037;-86
2023/04/10 02:57:18;;;;;;;105.10;74.57;;;7.70;99.90;;;;;;4995843;28;20410;-86
2023/04/10 02:59:43;;;;;;;98.65;66.38;;;7.60;99.90;;;;;;5011879;28;20034;-87
2023/04/10 03:02:09;;;;;;;78.22;62.95;;;7.30;99.90;;;;;;4995178;28;20049;-86
2023/04/10 03:04:35;;;;;;;100.43;67.32;;;7.80;99.90;;;;;;4995028;28;20062;-86
2023/04/10 03:07:00;;;;;;;94.47;63.28;;;7.80;99.90;;;;;;5009865;28;20100;-86
2023/04/10 03:09:26;;;;;;;82.88;58.72;;;7.60;99.90;;;;;;5011456;28;20045;-86
2023/04/10 03:11:51;;;;;;;87.88;61.88;;;7.70;99.90;;;;;;5011609;28;20077;-86
2023/04/10 03:14:17;;;;;;;83.40;62.67;;;7.80;99.90;;;;;;4992061;28;20034;-86
2023/04/10 03:16:43;;;;;;;80.63;64.72;;;7.60;99.90;;;;;;4998007;28;20046;-86
2023/04/10 03:19:08;;;;;;;84.97;59.83;;;7.80;99.90;;;;;;5011635;28;20490;-86
2023/04/10 03:21:34;;;;;;;69.65;51.25;;;7.20;99.90;;;;;;5006851;28;20080;-86
2023/04/10 03:23:59;;;;;;;110.88;85.55;;;7.10;99.90;;;;;;4999112;28;20086;-86
2023/04/10 03:26:26;;;;;;;73.90;57.72;;;7.20;99.90;;;;;;4994970;28;20041;-87
2023/04/10 03:28:52;;;;;;;94.88;62.67;;;7.60;99.90;;;;;;5011455;28;20658;-86
2023/04/10 03:31:17;;;;;;;70.78;55.95;;;7.10;99.90;;;;;;4994915;28;20034;-87
2023/04/10 03:33:43;;;;;;;73.95;53.92;;;7.60;99.90;;;;;;4995280;28;20080;-86
2023/04/10 03:36:10;;;;;;;83.97;59.00;;;7.70;99.90;;;;;;4992666;28;20042;-86
2023/04/10 03:38:35;;;;;;;94.57;62.45;;;7.60;99.90;;;;;;5005582;28;20363;-86
2023/04/10 03:41:01;;;;;;;124.22;80.88;;;7.30;99.90;;;;;;4975764;28;20069;-86
2023/04/10 03:43:28;;;;;;;112.53;91.53;;;7.30;99.90;;;;;;4994511;28;20103;-86
2023/04/10 03:45:54;;;;;;;92.80;71.00;;;7.50;99.90;;;;;;4993821;28;20046;-86
2023/04/10 03:48:20;;;;;;;79.07;50.80;;;8.00;99.90;;;;;;5010862;28;20478;-87
2023/04/10 03:50:45;;;;;;;80.40;54.00;;;7.90;99.90;;;;;;5009790;28;20042;-86
2023/04/10 03:53:11;;;;;;;123.68;92.43;;;8.00;99.90;;;;;;5008676;28;20496;-86
2023/04/10 03:55:37;;;;;;;85.60;55.40;;;7.60;99.90;;;;;;4988009;28;20133;-86
2023/04/10 03:58:03;;;;;;;102.18;66.43;;;7.60;99.90;;;;;;4994747;28;20137;-86
2023/04/10 04:00:31;;;;;;;86.63;63.47;;;8.10;99.90;;;;;;4993876;28;20046;-86
2023/04/10 04:02:57;;;;;;;97.15;66.63;;;7.70;99.90;;;;;;4994283;28;20592;-86
2023/04/10 04:05:23;;;;;;;77.25;54.42;;;8.10;99.90;;;;;;5009311;28;20057;-87
2023/04/10 04:07:49;;;;;;;105.07;76.35;;;7.90;99.90;;;;;;4993143;28;20038;-86
2023/04/10 04:10:15;;;;;;;97.22;66.78;;;8.20;99.90;;;;;;4994427;28;20038;-86
2023/04/10 04:12:40;;;;;;;108.85;91.05;;;8.00;99.90;;;;;;5010171;28;20425;-86
2023/04/10 04:15:06;;;;;;;123.55;90.78;;;7.80;99.90;;;;;;4993534;28;20045;-87
2023/04/10 04:17:32;;;;;;;86.90;64.82;;;8.00;99.90;;;;;;5010423;28;20042;-86
2023/04/10 04:19:57;;;;;;;73.65;52.72;;;8.30;99.90;;;;;;5010667;28;20042;-86
2023/04/10 04:22:23;;;;;;;103.03;78.93;;;7.80;99.90;;;;;;4992746;28;20120;-86
2023/04/10 04:24:49;;;;;;;152.70;101.65;;;9.50;99.90;;;;;;4993829;28;20045;-87
2023/04/10 04:27:14;;;;;;;114.15;88.45;;;7.90;99.90;;;;;;5009590;28;20048;-86
2023/04/10 04:29:40;;;;;;;69.43;52.08;;;8.40;99.90;;;;;;4993826;28;20038;-86
2023/04/10 04:32:06;;;;;;;85.85;68.80;;;8.00;99.90;;;;;;4993702;28;20038;-86
2023/04/10 04:34:31;;;;;;;77.93;56.92;;;8.50;99.90;;;;;;4993233;28;20053;-86
2023/04/10 04:36:57;;;;;;;76.72;56.20;;;8.30;99.90;;;;;;5008561;28;20138;-86
2023/04/10 04:39:22;;;;;;;76.00;52.53;;;7.90;99.90;;;;;;4993467;28;20501;-86
2023/04/10 04:41:48;;;;;;;80.60;53.97;;;8.20;99.90;;;;;;5009225;28;20053;-86
2023/04/10 04:44:14;;;;;;;78.15;57.10;;;8.50;99.90;;;;;;4997271;28;20514;-86
2023/04/10 04:46:39;;;;;;;68.88;61.38;;;8.10;99.90;;;;;;5008374;28;20812;-87
2023/04/10 04:49:05;;;;;;;98.13;80.70;;;7.90;99.90;;;;;;5009547;28;20061;-86
2023/04/10 04:51:31;;;;;;;73.20;64.65;;;8.40;99.90;;;;;;4992400;28;20164;-86
2023/04/10 04:53:56;;;;;;;107.13;75.80;;;8.20;99.90;;;;;;4992856;28;20042;-86
2023/04/10 04:56:22;;;;;;;66.68;56.58;;;7.80;99.90;;;;;;4993312;28;20038;-86
2023/04/10 04:58:47;;;;;;;72.20;63.92;;;7.80;99.90;;;;;;4987970;28;20045;-86
2023/04/10 05:01:13;;;;;;;74.82;60.45;;;8.20;99.90;;;;;;4989870;28;20077;-86
2023/04/10 05:03:38;;;;;;;92.93;83.28;;;8.00;99.90;;;;;;5006156;28;20045;-86
2023/04/10 05:06:04;;;;;;;68.30;56.05;;;7.90;99.90;;;;;;5007796;28;20093;-86
2023/04/10 05:08:30;;;;;;;67.38;60.72;;;8.30;99.90;;;;;;4993096;28;20049;-86
2023/04/10 05:10:56;;;;;;;72.72;58.97;;;8.50;99.90;;;;;;5009589;28;20034;-86
2023/04/10 05:13:21;;;;;;;79.00;71.07;;;8.10;99.90;;;;;;5007059;28;20516;-86
2023/04/10 05:15:47;;;;;;;64.35;57.70;;;8.20;99.90;;;;;;4993107;28;20042;-86
2023/04/10 05:18:13;;;;;;;68.90;61.58;;;8.60;99.90;;;;;;5009453;28;20513;-86
2023/04/10 05:20:39;;;;;;;50.17;43.10;;;10.10;99.90;;;;;;5007623;28;20042;-86
2023/04/10 05:23:04;;;;;;;65.75;58.63;;;9.40;99.90;;;;;;4982776;28;20046;-86
2023/04/10 05:25:30;;;;;;;84.18;75.78;;;8.70;99.90;;;;;;4989826;28;20131;-86
2023/04/10 05:27:56;;;;;;;81.50;67.03;;;8.30;99.90;;;;;;4997711;28;20084;-86
2023/04/10 05:30:21;;;;;;;80.10;65.28;;;8.60;99.90;;;;;;5008916;28;20046;-87
2023/04/10 05:32:47;;;;;;;52.83;46.17;;;8.50;99.90;;;;;;5008679;28;20046;-86
2023/04/10 05:35:13;;;;;;;71.10;58.25;;;8.20;99.90;;;;;;4992309;28;20165;-86
2023/04/10 05:37:38;;;;;;;67.78;60.67;;;10.40;99.90;;;;;;5007674;28;20058;-86
2023/04/10 05:40:04;;;;;;;83.50;59.40;;;9.10;99.90;;;;;;4993951;28;20125;-86
2023/04/10 05:42:30;;;;;;;69.13;61.17;;;8.40;99.90;;;;;;4993701;28;20050;-86
2023/04/10 05:44:56;;;;;;;82.95;69.63;;;8.20;99.90;;;;;;4992056;28;20077;-86
2023/04/10 05:47:21;;;;;;;101.53;75.30;;;8.10;99.90;;;;;;4990113;28;20091;-86
2023/04/10 05:49:47;;;;;;;81.32;68.95;;;8.20;99.90;;;;;;4992973;28;20042;-86
2023/04/10 05:52:12;;;;;;;98.68;88.45;;;8.50;99.90;;;;;;4990705;28;20065;-86
2023/04/10 05:54:38;;;;;;;65.88;58.72;;;8.40;99.90;;;;;;4992616;28;20068;-86
2023/04/10 05:57:03;;;;;;;136.68;106.95;;;8.30;99.90;;;;;;5008664;28;20048;-86
2023/04/10 05:59:29;;;;;;;83.07;74.03;;;8.20;99.90;;;;;;4992853;28;20042;-86
2023/04/10 06:01:56;;;;;;;78.07;68.07;;;9.00;99.90;;;;;;4989349;28;20037;-86
2023/04/10 06:04:22;;;;;;;70.38;58.25;;;8.50;99.90;;;;;;4991655;28;20128;-87
2023/04/10 06:06:48;;;;;;;52.88;47.13;;;9.10;99.90;;;;;;4987992;28;20453;-86
2023/04/10 06:09:13;;;;;;;90.68;74.45;;;9.50;99.90;;;;;;5003866;28;20041;-86
2023/04/10 06:11:39;;;;;;;92.75;70.88;;;8.70;99.90;;;;;;4978504;28;20073;-86
2023/04/10 06:14:04;;;;;;;64.28;57.22;;;9.00;99.90;;;;;;4999621;28;20426;-86
2023/04/10 06:16:30;;;;;;;77.68;68.70;;;9.10;99.90;;;;;;4994802;28;20053;-86
2023/04/10 06:18:56;;;;;;;63.85;53.28;;;8.90;99.90;;;;;;4998206;28;20050;-86
2023/04/10 06:21:22;;;;;;;113.95;92.00;;;9.10;99.90;;;;;;5002670;28;20041;-86
2023/04/10 06:23:47;;;;;;;88.68;79.35;;;9.10;99.90;;;;;;5001662;28;20457;-87
2023/04/10 06:26:13;;;;;;;83.32;69.75;;;9.70;99.90;;;;;;5000928;28;20050;-86
2023/04/10 06:28:39;;;;;;;125.53;90.10;;;9.80;99.90;;;;;;5000083;28;20121;-86
2023/04/10 06:31:07;;;;;;;87.35;69.10;;;9.80;99.90;;;;;;5007230;28;20402;-86
2023/04/10 06:33:36;;;;;;;79.40;71.22;;;9.50;99.90;;;;;;5000835;28;20040;-86
2023/04/10 06:36:02;;;;;;;82.03;73.40;;;10.00;99.90;;;;;;4997813;28;20096;-86
2023/04/10 06:38:28;;;;;;;78.55;70.47;;;9.70;99.90;;;;;;5001900;28;20061;-86
2023/04/10 06:40:54;;;;;;;71.53;59.30;;;10.30;99.90;;;;;;4972979;28;20042;-86
2023/04/10 06:43:19;;;;;;;75.10;65.93;;;10.40;99.90;;;;;;4997285;28;20072;-86
2023/04/10 06:45:45;;;;;;;81.80;72.90;;;10.00;99.90;;;;;;4995460;28;20096;-86
2023/04/10 06:48:11;;;;;;;73.20;65.70;;;10.60;99.90;;;;;;5000809;28;20062;-86
2023/04/10 06:50:37;;;;;;;80.97;66.35;;;10.10;99.90;;;;;;4991035;28;20100;-86
2023/04/10 06:53:02;;;;;;;72.80;59.15;;;10.60;99.90;;;;;;5007021;28;20437;-86
2023/04/10 06:55:28;;;;;;;53.58;45.42;;;10.40;99.90;;;;;;5003800;28;20449;-86
2023/04/10 06:57:55;;;;;;;63.15;57.00;;;10.90;99.90;;;;;;4990121;28;20034;-87
2023/04/10 07:00:21;;;;;;;69.93;62.72;;;11.00;99.90;;;;;;5000343;28;20417;-86
2023/04/10 07:02:47;;;;;;;73.57;65.53;;;10.50;99.90;;;;;;5002331;28;20060;-87
2023/04/10 07:05:14;;;;;;;47.13;42.25;;;11.30;99.90;;;;;;5020579;28;20169;-88
2023/04/10 07:07:40;;;;;;;59.33;53.30;;;12.00;99.90;;;;;;5003849;28;20049;-86
2023/04/10 07:10:06;;;;;;;68.38;55.70;;;11.20;99.90;;;;;;5001702;28;20493;-86
2023/04/10 07:12:32;;;;;;;73.07;59.33;;;10.90;99.90;;;;;;5003992;28;20535;-86
2023/04/10 07:14:58;;;;;;;66.88;50.55;;;10.80;99.90;;;;;;4998428;28;20034;-87
2023/04/10 07:17:24;;;;;;;62.60;51.60;;;10.90;99.90;;;;;;4986763;28;20046;-87
2023/04/10 07:19:49;;;;;;;73.82;61.97;;;11.30;99.90;;;;;;4977661;28;20046;-86
2023/04/10 07:22:15;;;;;;;56.33;50.78;;;11.00;99.90;;;;;;5007286;28;20057;-86
2023/04/10 07:24:41;;;;;;;57.50;49.97;;;11.00;99.90;;;;;;4992677;28;20038;-86
2023/04/10 07:27:06;;;;;;;64.63;57.85;;;11.50;99.90;;;;;;4992754;28;20042;-86
2023/04/10 07:29:32;;;;;;;64.68;57.72;;;11.40;99.90;;;;;;5007188;28;20038;-86
2023/04/10 07:31:57;;;;;;;75.25;67.35;;;11.50;99.90;;;;;;5009421;28;20057;-86
2023/04/10 07:34:24;;;;;;;46.95;39.10;;;11.40;99.90;;;;;;5009850;28;20038;-86
2023/04/10 07:36:50;;;;;;;48.65;43.67;;;11.40;99.90;;;;;;5006750;28;20181;-86
2023/04/10 07:39:15;;;;;;;53.47;46.00;;;11.50;99.90;;;;;;4990599;28;20497;-86
2023/04/10 07:41:42;;;;;;;51.53;46.20;;;11.90;99.90;;;;;;5005578;28;20038;-86
2023/04/10 07:44:07;;;;;;;57.65;51.63;;;11.60;99.90;;;;;;4988130;28;20412;-86
2023/04/10 07:46:33;;;;;;;46.05;41.30;;;12.80;99.90;;;;;;5000043;28;20042;-87
2023/04/10 07:48:59;;;;;;;67.80;60.95;;;11.90;99.90;;;;;;5000110;28;20069;-86
2023/04/10 07:51:24;;;;;;;66.60;59.58;;;11.70;99.90;;;;;;5005847;28;20029;-86
2023/04/10 07:53:50;;;;;;;50.83;45.42;;;12.00;99.90;;;;;;5001349;28;20068;-86
2023/04/10 07:56:20;;;;;;;45.45;40.92;;;11.80;1.00;;;;;;5007870;28;20045;-86
2023/04/10 07:58:46;;;;;;;41.05;35.97;;;12.10;1.00;;;;;;4999404;28;20450;-87
2023/04/10 08:01:12;;;;;;;36.40;32.83;;;11.90;99.90;;;;;;4984472;28;20437;-86
2023/04/10 08:03:39;;;;;;;39.28;35.13;;;12.00;1.00;;;;;;5008291;28;20449;-86
2023/04/10 08:06:07;;;;;;;41.10;36.75;;;12.30;49.10;;;;;;5001712;28;20065;-86
2023/04/10 08:08:36;;;;;;;44.55;40.05;;;12.30;99.90;;;;;;5003941;28;20054;-86
2023/04/10 08:11:03;;;;;;;32.92;29.40;;;12.20;99.90;;;;;;4996591;28;20066;-86
2023/04/10 08:13:29;;;;;;;37.47;33.85;;;12.30;1.00;;;;;;5001370;28;20830;-86
2023/04/10 08:15:54;;;;;;;43.25;38.72;;;12.50;99.90;;;;;;4981686;28;20042;-86
2023/04/10 08:18:20;;;;;;;34.67;31.27;;;12.90;38.60;;;;;;4985160;28;20050;-86
2023/04/10 08:20:46;;;;;;;36.50;32.80;;;13.60;99.90;;;;;;4999450;28;20052;-87
2023/04/10 08:23:11;;;;;;;30.40;27.35;;;13.00;98.90;;;;;;5005055;28;20498;-86
2023/04/10 08:25:37;;;;;;;33.08;27.52;;;12.90;1.00;;;;;;5005904;28;20583;-86
2023/04/10 08:28:02;;;;;;;35.80;32.00;;;12.90;99.90;;;;;;5003979;28;20560;-86
2023/04/10 08:30:28;;;;;;;27.88;24.88;;;12.90;19.10;;;;;;4995090;28;20498;-86
2023/04/10 08:32:55;;;;;;;28.10;24.95;;;12.90;99.90;;;;;;4981902;28;20124;-86
2023/04/10 08:35:20;;;;;;;26.95;24.17;;;13.10;99.90;;;;;;5002024;28;20664;-86
2023/04/10 08:37:46;;;;;;;32.42;29.13;;;13.10;49.50;;;;;;5004306;28;20133;-86
2023/04/10 08:40:12;;;;;;;23.60;21.35;;;13.10;1.00;;;;;;5008777;28;20065;-86
2023/04/10 08:42:37;;;;;;;28.95;25.85;;;12.90;1.00;;;;;;4991028;28;20045;-86
2023/04/10 08:45:03;;;;;;;41.15;37.05;;;12.90;99.90;;;;;;4985926;28;20509;-86
2023/04/10 08:47:34;;;;;;;34.10;30.55;;;13.00;99.90;;;;;;4990648;28;20038;-86
2023/04/10 08:50:03;;;;;;;25.73;23.13;;;13.20;99.90;;;;;;4996052;28;20121;-86
2023/04/10 08:52:33;;;;;;;41.28;37.28;;;14.70;99.90;;;;;;5004846;28;20042;-86
2023/04/10 08:55:00;;;;;;;28.33;25.52;;;13.30;99.90;;;;;;5009825;28;20052;-86
2023/04/10 08:57:26;;;;;;;30.70;27.45;;;13.30;99.20;;;;;;5009754;28;20045;-86
2023/04/10 08:59:52;;;;;;;31.92;28.58;;;13.50;72.30;;;;;;5007721;28;20116;-86
2023/04/10 09:02:19;;;;;;;27.25;24.45;;;13.20;18.20;;;;;;4977323;28;20125;-86
2023/04/10 09:04:50;;;;;;;25.85;23.25;;;13.30;1.00;;;;;;4997777;28;20093;-86
2023/04/10 09:07:16;;;;;;;28.08;25.17;;;14.90;1.00;;;;;;4999238;28;20038;-86
2023/04/10 09:09:44;;;;;;;34.53;31.10;;;13.70;1.00;;;;;;5001052;28;20072;-87
2023/04/10 09:12:12;;;;;;;34.70;31.38;;;14.40;1.00;;;;;;5008265;28;20521;-86
2023/04/10 09:14:39;;;;;;;20.55;16.17;;;13.30;99.90;;;;;;4990825;28;20521;-85
2023/04/10 09:17:18;;;;;;;38.78;34.80;;;13.50;99.90;;;;;;4982600;28;20103;-86
2023/04/10 09:19:46;;;;;;;24.83;22.23;;;13.40;99.90;;;;;;4998252;28;20525;-87
2023/04/10 09:22:12;;;;;;;24.05;21.65;;;14.30;99.90;;;;;;4998182;28;20084;-86
2023/04/10 09:24:40;;;;;;;20.17;16.45;;;13.50;99.90;;;;;;5001984;28;20520;-86
2023/04/10 09:27:06;;;;;;;29.35;26.45;;;13.50;94.40;;;;;;4993868;28;20117;-86
2023/04/10 09:29:43;;;;;;;26.60;23.98;;;13.50;59.80;;;;;;4984849;28;20100;-86
2023/04/10 09:32:10;;;;;;;28.00;25.20;;;13.30;1.00;;;;;;5005122;28;20406;-86
2023/04/10 09:34:52;;;;;;;23.60;21.23;;;14.50;1.00;;;;;;4984426;28;20072;-86
2023/04/10 09:37:19;;;;;;;31.35;28.30;;;13.50;1.00;;;;;;4987594;28;20490;-86
2023/04/10 09:39:45;;;;;;;29.48;26.67;;;13.50;1.00;;;;;;4998605;28;20394;-86
2023/04/10 09:42:11;;;;;;;29.95;26.85;;;14.80;1.00;;;;;;5007294;28;20069;-86
2023/04/10 09:44:39;;;;;;;25.95;23.15;;;13.40;1.00;;;;;;5002778;28;20540;-86
2023/04/10 09:47:16;;;;;;;21.48;18.77;;;13.40;1.00;;;;;;4991274;28;20121;-86
2023/04/10 09:49:51;;;;;;;22.10;18.08;;;14.70;1.00;;;;;;4991634;28;20096;-86
2023/04/10 09:52:27;;;;;;;31.02;27.95;;;13.40;1.00;;;;;;4989849;28;20125;-86
2023/04/10 09:54:53;;;;;;;;;;;14.10;1.00;;;;;;5009103;28;20501;-86
2023/04/10 09:57:21;;;;;;;20.90;18.77;;;13.40;1.00;;;;;;4992201;28;20389;-86
2023/04/10 09:59:54;;;;;;;22.48;20.27;;;13.50;1.00;;;;;;5007447;28;20109;-86
2023/04/10 10:02:22;;;;;;;24.55;22.08;;;14.00;1.00;;;;;;4975569;28;20421;-86
2023/04/10 10:04:49;;;;;;;31.85;28.60;;;13.50;1.00;;;;;;4998188;28;20038;-86
2023/04/10 10:07:16;;;;;;;22.35;19.35;;;13.70;1.00;;;;;;5006400;28;20499;-86
2023/04/10 10:09:43;;;;;;;28.58;25.75;;;13.60;1.00;;;;;;5008418;28;20053;-86
2023/04/10 10:12:11;;;;;;;35.08;31.70;;;13.70;1.00;;;;;;4988692;28;20034;-82
2023/04/10 10:14:45;;;;;;;31.33;26.77;;;13.90;1.00;;;;;;4984951;28;20103;-83
2023/04/10 10:17:16;;;;;;;35.22;31.83;;;13.80;1.00;;;;;;4995351;28;20065;-83
2023/04/10 10:20:06;;;;;;;27.17;24.35;;;14.90;1.00;;;;;;5001715;28;20096;-82
2023/04/10 10:22:32;;;;;;;18.58;16.40;;;14.00;1.00;;;;;;5005156;28;20037;-83
2023/04/10 10:24:59;;;;;;;30.67;27.67;;;14.10;1.00;;;;;;5008499;28;20057;-83
2023/04/10 10:27:26;;;;;;;33.53;30.20;;;14.00;99.90;;;;;;5017278;28;20125;-82
2023/04/10 10:29:54;;;;;;;28.35;25.40;;;14.00;99.90;;;;;;4988174;28;20045;-83
2023/04/10 10:32:21;;;;;;;33.42;30.13;;;13.80;99.90;;;;;;4998805;28;20397;-83
2023/04/10 10:34:49;;;;;;;28.15;25.15;;;13.70;99.90;;;;;;4984275;28;20126;-83
2023/04/10 10:37:17;;;;;;;22.30;19.77;;;13.80;99.90;;;;;;4975524;28;20092;-83
2023/04/10 10:39:56;;;;;;;15.00;13.40;;;13.80;99.90;;;;;;5004401;28;20097;-82
2023/04/10 10:42:27;;;;;;;30.42;27.42;;;14.60;99.90;;;;;;4997804;28;20049;-82
2023/04/10 10:45:14;;;;;;;28.92;26.30;;;13.80;99.90;;;;;;5007267;28;20037;-82
2023/04/10 10:47:51;;;;;;;31.60;28.40;;;13.80;99.90;;;;;;5009887;28;20089;-82
2023/04/10 10:50:17;;;;;;;23.60;20.95;;;13.90;99.90;;;;;;4985463;28;20112;-83
2023/04/10 10:52:51;;;;;;;33.22;29.88;;;13.90;99.90;;;;;;4999133;28;20069;-82
2023/04/10 10:55:27;;;;;;;22.83;20.48;;;13.90;99.90;;;;;;5004272;28;20041;-83
2023/04/10 10:57:54;;;;;;;27.77;25.05;;;15.60;99.90;;;;;;4991142;28;20113;-82
2023/04/10 11:00:24;;;;;;;24.77;22.20;;;14.00;71.60;;;;;;4987507;28;20592;-83
2023/04/10 11:03:11;;;;;;;28.40;25.50;;;15.20;73.40;;;;;;5007382;28;20045;-83
2023/04/10 11:06:01;;;;;;;32.08;28.98;;;15.60;99.90;;;;;;5008310;28;20507;-83
2023/04/10 11:08:44;;;;;;;32.22;29.02;;;14.50;99.90;;;;;;5010812;28;20060;-82
2023/04/10 11:11:17;;;;;;;28.05;25.27;;;14.50;99.90;;;;;;4999502;28;20520;-83
2023/04/10 11:13:49;;;;;;;16.55;14.10;;;14.80;99.90;;;;;;4984594;28;20065;-83
2023/04/10 11:16:15;;;;;;;25.65;22.52;;;15.60;99.90;;;;;;5004205;28;20048;-82
2023/04/10 11:18:44;;;;;;;30.90;27.40;;;14.70;41.30;;;;;;5001388;28;20089;-83
2023/04/10 11:21:17;;;;;;;27.25;24.45;;;15.80;97.60;;;;;;4983461;28;20077;-83
2023/04/10 11:23:49;;;;;;;19.48;17.40;;;14.70;38.30;;;;;;5005829;28;20046;-84
2023/04/10 11:26:40;;;;;;;18.58;16.52;;;14.70;13.70;;;;;;4992515;28;20648;-83
2023/04/10 11:29:18;;;;;;;18.25;15.70;;;14.80;29.30;;;;;;5003487;28;20038;-84
2023/04/10 11:31:55;;;;;;;26.05;23.35;;;14.80;4.60;;;;;;5001135;28;20057;-84
2023/04/10 11:34:24;;;;;;;25.35;22.88;;;14.90;16.50;;;;;;4990518;28;20053;-84
2023/04/10 11:36:50;;;;;;;26.58;23.75;;;15.00;1.00;;;;;;4981285;28;20038;-85
2023/04/10 11:39:20;;;;;;;31.50;28.52;;;14.90;1.00;;;;;;4999606;28;20116;-83
2023/04/10 11:41:48;;;;;;;30.15;27.17;;;14.80;1.00;;;;;;5003836;28;20524;-85
2023/04/10 11:44:24;;;;;;;23.50;21.05;;;15.30;1.00;;;;;;4991215;28;20087;-84
2023/04/10 11:46:50;;;;;;;;;;;14.80;1.00;;;;;;4976375;28;21605;-84
2023/04/10 11:49:21;;;;;;;36.50;33.08;;;16.10;1.00;;;;;;4987356;28;19921;-84
2023/04/10 11:51:47;;;;;;;22.65;20.30;;;14.80;1.00;;;;;;4982173;28;20940;-84
2023/04/10 11:54:24;;;;;;;31.60;28.63;;;14.80;1.00;;;;;;5004569;28;20553;-84
2023/04/10 11:56:56;;;;;;;36.50;32.83;;;14.80;99.90;;;;;;5000580;28;20434;-84
2023/04/10 11:59:22;;;;;;;28.45;25.75;;;15.00;99.90;;;;;;4991149;28;20129;-83
2023/04/10 12:01:49;;;;;;;25.83;23.15;;;15.10;99.90;;;;;;4993014;28;20124;-83
2023/04/10 12:04:15;;;;;;;37.38;33.92;;;14.80;99.90;;;;;;4991403;28;20078;-83
2023/04/10 12:06:49;;;;;;;29.35;26.55;;;14.80;99.90;;;;;;4983136;28;20033;-83
2023/04/10 12:09:17;;;;;;;31.50;28.58;;;14.80;99.90;;;;;;5010405;28;20026;-83
2023/04/10 12:11:54;;;;;;;28.45;25.58;;;15.50;99.90;;;;;;5010555;28;20045;-83
2023/04/10 12:14:28;;;;;;;29.52;26.33;;;14.70;99.90;;;;;;4994414;28;20034;-84
2023/04/10 12:16:53;;;;;;;29.10;26.10;;;14.70;99.90;;;;;;5007906;28;20085;-83
2023/04/10 12:19:19;;;;;;;30.35;27.58;;;14.60;99.90;;;;;;5004139;28;20161;-83
2023/04/10 12:21:45;;;;;;;30.98;28.02;;;14.80;99.90;;;;;;4981571;28;20045;-83
2023/04/10 12:24:11;;;;;;;27.48;24.80;;;14.80;99.90;;;;;;4992865;28;20383;-84
2023/04/10 12:26:37;;;;;;;29.77;26.90;;;14.80;99.90;;;;;;4997349;28;20561;-83
2023/04/10 12:29:05;;;;;;;31.63;28.42;;;15.00;99.90;;;;;;4992133;28;20026;-83
2023/04/10 12:31:35;;;;;;;29.00;26.27;;;16.40;99.90;;;;;;4992394;28;20042;-83
2023/04/10 12:34:04;;;;;;;20.33;18.33;;;15.90;99.90;;;;;;4983510;28;20037;-83